sensor_id;sensor_type;location;lat;lon;timestamp;temperature;humidity
3860;DHT22;1945;52.036;8.614;2023-10-08T00:01:39;17.50;89.30
3860;DHT22;1945;52.036;8.614;2023-10-08T00:04:09;17.50;86.60
3860;DHT22;1945;52.036;8.614;2023-10-08T00:06:37;17.50;94.70
3860;DHT22;1945;52.036;8.614;2023-10-08T00:09:04;17.50;99.90
3860;DHT22;1945;52.036;8.614;2023-10-08T00:11:34;17.50;99.90
3860;DHT22;1945;52.036;8.614;2023-10-08T00:14:03;17.50;72.90
3860;DHT22;1945;52.036;8.614;2023-10-08T00:16:34;17.50;96.40
3860;DHT22;1945;52.036;8.614;2023-10-08T00:19:04;17.50;99.90
3860;DHT22;1945;52.036;8.614;2023-10-08T00:21:34;17.50;99.90
3860;DHT22;1945;52.036;8.614;2023-10-08T00:24:04;17.50;99.90
3860;DHT22;1945;52.036;8.614;2023-10-08T00:26:33;17.50;99.90
3860;DHT22;1945;52.036;8.614;2023-10-08T00:29:02;17.50;99.90
3860;DHT22;1945;52.036;8.614;2023-10-08T00:31:32;17.50;99.90
3860;DHT22;1945;52.036;8.614;2023-10-08T00:34:04;17.50;99.90
3860;DHT22;1945;52.036;8.614;2023-10-08T00:36:34;17.50;99.90
3860;DHT22;1945;52.036;8.614;2023-10-08T00:39:03;17.50;99.90
3860;DHT22;1945;52.036;8.614;2023-10-08T00:41:34;17.50;99.90
3860;DHT22;1945;52.036;8.614;2023-10-08T00:44:00;17.50;99.90
3860;DHT22;1945;52.036;8.614;2023-10-08T00:46:31;17.50;99.90
3860;DHT22;1945;52.036;8.614;2023-10-08T00:49:03;17.50;99.90
3860;DHT22;1945;52.036;8.614;2023-10-08T00:51:50;17.50;99.90
3860;DHT22;1945;52.036;8.614;2023-10-08T00:54:26;17.40;99.90
3860;DHT22;1945;52.036;8.614;2023-10-08T00:56:58;17.40;99.90
3860;DHT22;1945;52.036;8.614;2023-10-08T00:59:29;17.40;99.90
3860;DHT22;1945;52.036;8.614;2023-10-08T01:02:02;17.40;99.90
3860;DHT22;1945;52.036;8.614;2023-10-08T01:04:34;17.40;99.90
3860;DHT22;1945;52.036;8.614;2023-10-08T01:07:03;17.40;99.90
3860;DHT22;1945;52.036;8.614;2023-10-08T01:09:38;16.80;1.00
3860;DHT22;1945;52.036;8.614;2023-10-08T01:12:09;15.80;41.00
3860;DHT22;1945;52.036;8.614;2023-10-08T01:14:38;15.30;99.90
3860;DHT22;1945;52.036;8.614;2023-10-08T01:17:08;14.80;99.90
3860;DHT22;1945;52.036;8.614;2023-10-08T01:19:36;14.60;99.90
3860;DHT22;1945;52.036;8.614;2023-10-08T01:22:07;14.60;99.90
3860;DHT22;1945;52.036;8.614;2023-10-08T01:24:38;14.50;99.90
3860;DHT22;1945;52.036;8.614;2023-10-08T01:27:06;14.30;99.90
3860;DHT22;1945;52.036;8.614;2023-10-08T01:29:37;14.20;99.90
3860;DHT22;1945;52.036;8.614;2023-10-08T01:32:04;14.20;99.90
3860;DHT22;1945;52.036;8.614;2023-10-08T01:34:35;13.90;99.90
3860;DHT22;1945;52.036;8.614;2023-10-08T01:37:02;13.90;99.90
3860;DHT22;1945;52.036;8.614;2023-10-08T01:39:36;14.00;99.90
3860;DHT22;1945;52.036;8.614;2023-10-08T01:42:03;13.90;99.90
3860;DHT22;1945;52.036;8.614;2023-10-08T01:44:31;13.90;99.90
3860;DHT22;1945;52.036;8.614;2023-10-08T01:46:59;13.60;99.90
3860;DHT22;1945;52.036;8.614;2023-10-08T01:49:26;13.60;99.90
3860;DHT22;1945;52.036;8.614;2023-10-08T01:51:59;13.50;99.90
3860;DHT22;1945;52.036;8.614;2023-10-08T01:54:32;13.50;99.90
3860;DHT22;1945;52.036;8.614;2023-10-08T01:57:02;13.40;99.90
3860;DHT22;1945;52.036;8.614;2023-10-08T01:59:31;13.50;99.90
3860;DHT22;1945;52.036;8.614;2023-10-08T02:01:59;13.50;99.90
3860;DHT22;1945;52.036;8.614;2023-10-08T02:04:25;13.30;99.90
3860;DHT22;1945;52.036;8.614;2023-10-08T02:06:52;13.40;99.90
3860;DHT22;1945;52.036;8.614;2023-10-08T02:09:19;13.20;99.90
3860;DHT22;1945;52.036;8.614;2023-10-08T02:11:51;13.30;99.90
3860;DHT22;1945;52.036;8.614;2023-10-08T02:14:20;13.40;99.90
3860;DHT22;1945;52.036;8.614;2023-10-08T02:16:48;13.20;99.90
3860;DHT22;1945;52.036;8.614;2023-10-08T02:19:15;13.20;99.90
3860;DHT22;1945;52.036;8.614;2023-10-08T02:21:44;13.20;99.90
3860;DHT22;1945;52.036;8.614;2023-10-08T02:24:12;13.20;99.90
3860;DHT22;1945;52.036;8.614;2023-10-08T02:26:39;13.00;99.90
3860;DHT22;1945;52.036;8.614;2023-10-08T02:29:09;13.30;99.90
3860;DHT22;1945;52.036;8.614;2023-10-08T02:31:39;13.40;99.90
3860;DHT22;1945;52.036;8.614;2023-10-08T02:34:06;13.40;99.90
3860;DHT22;1945;52.036;8.614;2023-10-08T02:36:34;13.20;99.90
3860;DHT22;1945;52.036;8.614;2023-10-08T02:39:03;13.20;99.90
3860;DHT22;1945;52.036;8.614;2023-10-08T02:41:39;13.00;99.90
3860;DHT22;1945;52.036;8.614;2023-10-08T02:44:07;13.00;99.90
3860;DHT22;1945;52.036;8.614;2023-10-08T02:46:39;13.00;99.90
3860;DHT22;1945;52.036;8.614;2023-10-08T02:49:07;12.90;99.90
3860;DHT22;1945;52.036;8.614;2023-10-08T02:51:36;12.90;99.90
3860;DHT22;1945;52.036;8.614;2023-10-08T02:54:03;13.00;99.90
3860;DHT22;1945;52.036;8.614;2023-10-08T02:56:31;13.10;99.90
3860;DHT22;1945;52.036;8.614;2023-10-08T02:58:58;13.00;99.90
3860;DHT22;1945;52.036;8.614;2023-10-08T03:01:28;13.00;99.90
3860;DHT22;1945;52.036;8.614;2023-10-08T03:04:00;12.90;99.90
3860;DHT22;1945;52.036;8.614;2023-10-08T03:06:34;12.90;99.90
3860;DHT22;1945;52.036;8.614;2023-10-08T03:09:04;12.80;99.90
3860;DHT22;1945;52.036;8.614;2023-10-08T03:11:30;12.70;99.90
3860;DHT22;1945;52.036;8.614;2023-10-08T03:13:57;12.60;99.90
3860;DHT22;1945;52.036;8.614;2023-10-08T03:16:25;12.50;99.90
3860;DHT22;1945;52.036;8.614;2023-10-08T03:19:01;12.30;99.90
3860;DHT22;1945;52.036;8.614;2023-10-08T03:21:31;12.20;99.90
3860;DHT22;1945;52.036;8.614;2023-10-08T03:24:14;12.20;99.90
3860;DHT22;1945;52.036;8.614;2023-10-08T03:26:55;12.10;99.90
3860;DHT22;1945;52.036;8.614;2023-10-08T03:29:32;12.20;99.90
3860;DHT22;1945;52.036;8.614;2023-10-08T03:31:58;12.10;99.90
3860;DHT22;1945;52.036;8.614;2023-10-08T03:34:32;12.20;99.90
3860;DHT22;1945;52.036;8.614;2023-10-08T03:37:01;12.00;99.90
3860;DHT22;1945;52.036;8.614;2023-10-08T03:39:32;11.80;99.90
3860;DHT22;1945;52.036;8.614;2023-10-08T03:42:19;11.90;99.90
3860;DHT22;1945;52.036;8.614;2023-10-08T03:44:48;11.90;99.90
3860;DHT22;1945;52.036;8.614;2023-10-08T03:47:17;11.90;99.90
3860;DHT22;1945;52.036;8.614;2023-10-08T03:49:46;12.00;99.90
3860;DHT22;1945;52.036;8.614;2023-10-08T03:52:16;11.90;99.90
3860;DHT22;1945;52.036;8.614;2023-10-08T03:54:43;11.80;99.90
3860;DHT22;1945;52.036;8.614;2023-10-08T03:57:14;11.90;99.90
3860;DHT22;1945;52.036;8.614;2023-10-08T03:59:50;11.90;99.90
3860;DHT22;1945;52.036;8.614;2023-10-08T04:02:24;11.90;99.90
3860;DHT22;1945;52.036;8.614;2023-10-08T04:05:06;12.00;99.90
3860;DHT22;1945;52.036;8.614;2023-10-08T04:07:44;11.80;99.90
3860;DHT22;1945;52.036;8.614;2023-10-08T04:10:32;11.70;99.90
3860;DHT22;1945;52.036;8.614;2023-10-08T04:13:25;11.90;99.90
3860;DHT22;1945;52.036;8.614;2023-10-08T04:15:53;12.00;99.90
3860;DHT22;1945;52.036;8.614;2023-10-08T04:18:20;12.00;99.90
3860;DHT22;1945;52.036;8.614;2023-10-08T04:20:48;12.00;99.90
3860;DHT22;1945;52.036;8.614;2023-10-08T04:23:26;12.00;99.90
3860;DHT22;1945;52.036;8.614;2023-10-08T04:25:54;12.00;99.90
3860;DHT22;1945;52.036;8.614;2023-10-08T04:28:21;11.90;99.90
3860;DHT22;1945;52.036;8.614;2023-10-08T04:30:48;12.00;99.90
3860;DHT22;1945;52.036;8.614;2023-10-08T04:33:16;12.00;99.90
3860;DHT22;1945;52.036;8.614;2023-10-08T04:35:45;11.90;99.90
3860;DHT22;1945;52.036;8.614;2023-10-08T04:38:21;12.00;99.90
3860;DHT22;1945;52.036;8.614;2023-10-08T04:40:49;11.90;99.90
3860;DHT22;1945;52.036;8.614;2023-10-08T04:43:18;12.00;99.90
3860;DHT22;1945;52.036;8.614;2023-10-08T04:45:50;12.00;99.90
3860;DHT22;1945;52.036;8.614;2023-10-08T04:48:17;11.90;99.90
3860;DHT22;1945;52.036;8.614;2023-10-08T04:50:46;11.90;99.90
3860;DHT22;1945;52.036;8.614;2023-10-08T04:53:25;12.00;99.90
3860;DHT22;1945;52.036;8.614;2023-10-08T04:56:00;12.00;99.90
3860;DHT22;1945;52.036;8.614;2023-10-08T04:58:31;12.00;99.90
3860;DHT22;1945;52.036;8.614;2023-10-08T05:01:02;12.00;99.90
3860;DHT22;1945;52.036;8.614;2023-10-08T05:03:43;12.00;99.90
3860;DHT22;1945;52.036;8.614;2023-10-08T05:06:22;12.00;99.90
3860;DHT22;1945;52.036;8.614;2023-10-08T05:09:07;12.00;99.90
3860;DHT22;1945;52.036;8.614;2023-10-08T05:11:49;12.00;99.90
3860;DHT22;1945;52.036;8.614;2023-10-08T05:14:34;12.00;99.90
3860;DHT22;1945;52.036;8.614;2023-10-08T05:17:06;12.00;99.90
3860;DHT22;1945;52.036;8.614;2023-10-08T05:19:35;12.00;99.90
3860;DHT22;1945;52.036;8.614;2023-10-08T05:22:21;12.00;99.90
3860;DHT22;1945;52.036;8.614;2023-10-08T05:25:10;12.10;99.90
3860;DHT22;1945;52.036;8.614;2023-10-08T05:27:52;12.10;99.90
3860;DHT22;1945;52.036;8.614;2023-10-08T05:30:34;12.00;99.90
3860;DHT22;1945;52.036;8.614;2023-10-08T05:33:18;12.00;99.90
3860;DHT22;1945;52.036;8.614;2023-10-08T05:35:51;12.00;99.90
3860;DHT22;1945;52.036;8.614;2023-10-08T05:38:28;12.00;99.90
3860;DHT22;1945;52.036;8.614;2023-10-08T05:41:13;12.00;99.90
3860;DHT22;1945;52.036;8.614;2023-10-08T05:43:54;12.00;99.90
3860;DHT22;1945;52.036;8.614;2023-10-08T05:46:44;12.00;99.90
3860;DHT22;1945;52.036;8.614;2023-10-08T05:49:32;12.00;99.90
3860;DHT22;1945;52.036;8.614;2023-10-08T05:52:04;12.00;99.90
3860;DHT22;1945;52.036;8.614;2023-10-08T05:54:53;12.00;99.90
3860;DHT22;1945;52.036;8.614;2023-10-08T05:57:39;12.00;99.90
3860;DHT22;1945;52.036;8.614;2023-10-08T06:00:12;12.00;99.90
3860;DHT22;1945;52.036;8.614;2023-10-08T06:02:56;12.10;99.90
3860;DHT22;1945;52.036;8.614;2023-10-08T06:05:37;12.10;99.90
3860;DHT22;1945;52.036;8.614;2023-10-08T06:08:10;12.10;99.90
3860;DHT22;1945;52.036;8.614;2023-10-08T06:10:38;12.10;99.90
3860;DHT22;1945;52.036;8.614;2023-10-08T06:13:23;12.10;99.90
3860;DHT22;1945;52.036;8.614;2023-10-08T06:16:10;12.10;99.90
3860;DHT22;1945;52.036;8.614;2023-10-08T06:18:39;12.10;99.90
3860;DHT22;1945;52.036;8.614;2023-10-08T06:21:06;12.10;99.90
3860;DHT22;1945;52.036;8.614;2023-10-08T06:23:34;12.10;99.90
3860;DHT22;1945;52.036;8.614;2023-10-08T06:26:02;12.10;99.90
3860;DHT22;1945;52.036;8.614;2023-10-08T06:28:42;12.00;99.90
3860;DHT22;1945;52.036;8.614;2023-10-08T06:31:09;12.10;99.90
3860;DHT22;1945;52.036;8.614;2023-10-08T06:33:42;12.10;99.90
3860;DHT22;1945;52.036;8.614;2023-10-08T06:36:09;12.40;99.90
3860;DHT22;1945;52.036;8.614;2023-10-08T06:38:42;12.10;99.90
3860;DHT22;1945;52.036;8.614;2023-10-08T06:41:10;12.10;99.90
3860;DHT22;1945;52.036;8.614;2023-10-08T06:43:42;12.10;99.90
3860;DHT22;1945;52.036;8.614;2023-10-08T06:46:10;12.10;99.90
3860;DHT22;1945;52.036;8.614;2023-10-08T06:48:38;12.20;99.90
3860;DHT22;1945;52.036;8.614;2023-10-08T06:51:08;12.20;99.90
3860;DHT22;1945;52.036;8.614;2023-10-08T06:53:38;12.30;99.90
3860;DHT22;1945;52.036;8.614;2023-10-08T06:56:05;12.20;99.90
3860;DHT22;1945;52.036;8.614;2023-10-08T06:58:35;12.40;99.90
3860;DHT22;1945;52.036;8.614;2023-10-08T07:01:03;12.30;99.90
3860;DHT22;1945;52.036;8.614;2023-10-08T07:03:33;12.30;99.90
3860;DHT22;1945;52.036;8.614;2023-10-08T07:06:01;12.30;99.90
3860;DHT22;1945;52.036;8.614;2023-10-08T07:08:29;12.40;99.90
3860;DHT22;1945;52.036;8.614;2023-10-08T07:10:57;12.30;99.90
3860;DHT22;1945;52.036;8.614;2023-10-08T07:13:25;12.40;99.90
3860;DHT22;1945;52.036;8.614;2023-10-08T07:15:55;12.40;99.90
3860;DHT22;1945;52.036;8.614;2023-10-08T07:18:23;12.40;99.90
3860;DHT22;1945;52.036;8.614;2023-10-08T07:20:52;12.40;99.90
3860;DHT22;1945;52.036;8.614;2023-10-08T07:23:27;12.50;99.90
3860;DHT22;1945;52.036;8.614;2023-10-08T07:25:57;12.60;99.90
3860;DHT22;1945;52.036;8.614;2023-10-08T07:28:36;12.70;99.90
3860;DHT22;1945;52.036;8.614;2023-10-08T07:31:05;12.70;99.90
3860;DHT22;1945;52.036;8.614;2023-10-08T07:33:36;12.70;99.90
3860;DHT22;1945;52.036;8.614;2023-10-08T07:36:03;12.70;99.90
3860;DHT22;1945;52.036;8.614;2023-10-08T07:38:39;12.70;99.90
3860;DHT22;1945;52.036;8.614;2023-10-08T07:41:07;12.70;99.90
3860;DHT22;1945;52.036;8.614;2023-10-08T07:43:34;12.80;99.90
3860;DHT22;1945;52.036;8.614;2023-10-08T07:46:01;13.00;99.90
3860;DHT22;1945;52.036;8.614;2023-10-08T07:48:27;13.10;99.90
3860;DHT22;1945;52.036;8.614;2023-10-08T07:50:57;13.10;99.90
3860;DHT22;1945;52.036;8.614;2023-10-08T07:53:24;13.20;99.90
3860;DHT22;1945;52.036;8.614;2023-10-08T07:56:03;13.20;99.90
3860;DHT22;1945;52.036;8.614;2023-10-08T07:58:32;13.30;99.90
3860;DHT22;1945;52.036;8.614;2023-10-08T08:01:03;13.30;99.90
3860;DHT22;1945;52.036;8.614;2023-10-08T08:03:31;13.30;99.90
3860;DHT22;1945;52.036;8.614;2023-10-08T08:06:03;13.30;99.90
3860;DHT22;1945;52.036;8.614;2023-10-08T08:08:31;13.40;99.90
3860;DHT22;1945;52.036;8.614;2023-10-08T08:10:59;13.50;1.00
3860;DHT22;1945;52.036;8.614;2023-10-08T08:13:31;13.40;1.00
3860;DHT22;1945;52.036;8.614;2023-10-08T08:15:59;13.60;1.00
3860;DHT22;1945;52.036;8.614;2023-10-08T08:18:36;13.60;1.00
3860;DHT22;1945;52.036;8.614;2023-10-08T08:21:09;13.60;1.00
3860;DHT22;1945;52.036;8.614;2023-10-08T08:23:40;13.60;1.00
3860;DHT22;1945;52.036;8.614;2023-10-08T08:26:07;13.70;1.00
3860;DHT22;1945;52.036;8.614;2023-10-08T08:28:38;13.80;1.00
3860;DHT22;1945;52.036;8.614;2023-10-08T08:31:06;14.20;99.90
3860;DHT22;1945;52.036;8.614;2023-10-08T08:33:40;14.70;99.90
3860;DHT22;1945;52.036;8.614;2023-10-08T08:36:20;14.40;99.90
3860;DHT22;1945;52.036;8.614;2023-10-08T08:38:47;14.30;1.00
3860;DHT22;1945;52.036;8.614;2023-10-08T08:41:14;14.30;1.00
3860;DHT22;1945;52.036;8.614;2023-10-08T08:43:44;14.20;1.00
3860;DHT22;1945;52.036;8.614;2023-10-08T08:46:10;14.20;1.00
3860;DHT22;1945;52.036;8.614;2023-10-08T08:48:40;14.00;99.90
3860;DHT22;1945;52.036;8.614;2023-10-08T08:51:07;14.00;99.90
3860;DHT22;1945;52.036;8.614;2023-10-08T08:53:36;14.00;1.00
3860;DHT22;1945;52.036;8.614;2023-10-08T08:56:06;14.30;1.00
3860;DHT22;1945;52.036;8.614;2023-10-08T08:58:35;14.50;1.00
3860;DHT22;1945;52.036;8.614;2023-10-08T09:01:03;14.80;99.90
3860;DHT22;1945;52.036;8.614;2023-10-08T09:03:31;15.00;99.90
3860;DHT22;1945;52.036;8.614;2023-10-08T09:05:58;15.00;99.90
3860;DHT22;1945;52.036;8.614;2023-10-08T09:08:28;14.80;30.20
3860;DHT22;1945;52.036;8.614;2023-10-08T09:10:59;14.80;1.00
3860;DHT22;1945;52.036;8.614;2023-10-08T09:13:27;14.80;99.90
3860;DHT22;1945;52.036;8.614;2023-10-08T09:15:57;14.80;99.90
3860;DHT22;1945;52.036;8.614;2023-10-08T09:18:29;14.80;1.00
3860;DHT22;1945;52.036;8.614;2023-10-08T09:21:07;14.90;99.90
3860;DHT22;1945;52.036;8.614;2023-10-08T09:23:39;15.10;99.90
3860;DHT22;1945;52.036;8.614;2023-10-08T09:26:09;15.20;1.00
3860;DHT22;1945;52.036;8.614;2023-10-08T09:28:39;15.10;91.20
3860;DHT22;1945;52.036;8.614;2023-10-08T09:31:10;15.10;99.90
3860;DHT22;1945;52.036;8.614;2023-10-08T09:33:37;15.10;99.90
3860;DHT22;1945;52.036;8.614;2023-10-08T09:36:04;15.00;99.90
3860;DHT22;1945;52.036;8.614;2023-10-08T09:38:33;15.00;99.90
3860;DHT22;1945;52.036;8.614;2023-10-08T09:41:00;15.20;99.90
3860;DHT22;1945;52.036;8.614;2023-10-08T09:43:29;15.20;1.00
3860;DHT22;1945;52.036;8.614;2023-10-08T09:46:03;15.30;99.90
3860;DHT22;1945;52.036;8.614;2023-10-08T09:48:32;15.40;1.00
3860;DHT22;1945;52.036;8.614;2023-10-08T09:51:00;15.60;99.90
3860;DHT22;1945;52.036;8.614;2023-10-08T09:53:36;15.70;32.60
3860;DHT22;1945;52.036;8.614;2023-10-08T09:56:13;15.70;99.90
3860;DHT22;1945;52.036;8.614;2023-10-08T09:58:42;15.80;22.20
3860;DHT22;1945;52.036;8.614;2023-10-08T10:01:10;15.70;99.90
3860;DHT22;1945;52.036;8.614;2023-10-08T10:03:37;15.70;1.00
3860;DHT22;1945;52.036;8.614;2023-10-08T10:06:05;15.70;1.00
3860;DHT22;1945;52.036;8.614;2023-10-08T10:08:37;15.90;1.00
3860;DHT22;1945;52.036;8.614;2023-10-08T10:11:04;15.90;1.00
3860;DHT22;1945;52.036;8.614;2023-10-08T10:13:35;16.00;1.00
3860;DHT22;1945;52.036;8.614;2023-10-08T10:16:06;15.70;1.00
3860;DHT22;1945;52.036;8.614;2023-10-08T10:18:33;15.90;1.00
3860;DHT22;1945;52.036;8.614;2023-10-08T10:21:23;16.10;99.90
3860;DHT22;1945;52.036;8.614;2023-10-08T10:23:51;16.40;99.90
3860;DHT22;1945;52.036;8.614;2023-10-08T10:26:24;16.10;1.00
3860;DHT22;1945;52.036;8.614;2023-10-08T10:29:20;15.80;1.00
3860;DHT22;1945;52.036;8.614;2023-10-08T10:31:49;15.90;99.90
3860;DHT22;1945;52.036;8.614;2023-10-08T10:34:20;16.10;99.90
3860;DHT22;1945;52.036;8.614;2023-10-08T10:36:49;16.00;99.90
3860;DHT22;1945;52.036;8.614;2023-10-08T10:39:22;16.10;99.90
3860;DHT22;1945;52.036;8.614;2023-10-08T10:41:54;16.20;1.00
3860;DHT22;1945;52.036;8.614;2023-10-08T10:44:23;16.20;99.90
3860;DHT22;1945;52.036;8.614;2023-10-08T10:46:51;15.90;1.00
3860;DHT22;1945;52.036;8.614;2023-10-08T10:49:38;16.20;99.90
3860;DHT22;1945;52.036;8.614;2023-10-08T10:52:14;16.40;99.90
3860;DHT22;1945;52.036;8.614;2023-10-08T10:54:43;16.50;99.90
3860;DHT22;1945;52.036;8.614;2023-10-08T10:57:24;16.60;99.90
3860;DHT22;1945;52.036;8.614;2023-10-08T11:00:02;16.60;11.70
3860;DHT22;1945;52.036;8.614;2023-10-08T11:02:45;16.30;5.00
3860;DHT22;1945;52.036;8.614;2023-10-08T11:05:15;16.20;23.10
3860;DHT22;1945;52.036;8.614;2023-10-08T11:07:46;16.20;1.00
3860;DHT22;1945;52.036;8.614;2023-10-08T11:10:13;16.40;99.90
3860;DHT22;1945;52.036;8.614;2023-10-08T11:12:41;16.20;1.00
3860;DHT22;1945;52.036;8.614;2023-10-08T11:15:12;16.30;79.70
3860;DHT22;1945;52.036;8.614;2023-10-08T11:17:41;16.40;1.00
3860;DHT22;1945;52.036;8.614;2023-10-08T11:23:01;16.70;22.90
3860;DHT22;1945;52.036;8.614;2023-10-08T11:25:52;16.70;1.00
3860;DHT22;1945;52.036;8.614;2023-10-08T11:28:19;16.80;1.00
3860;DHT22;1945;52.036;8.614;2023-10-08T11:30:47;16.90;1.00
3860;DHT22;1945;52.036;8.614;2023-10-08T11:33:17;16.90;99.90
3860;DHT22;1945;52.036;8.614;2023-10-08T11:35:55;16.60;1.00
3860;DHT22;1945;52.036;8.614;2023-10-08T11:38:25;16.90;83.40
3860;DHT22;1945;52.036;8.614;2023-10-08T11:40:53;16.80;1.00
3860;DHT22;1945;52.036;8.614;2023-10-08T11:43:23;16.70;1.00
3860;DHT22;1945;52.036;8.614;2023-10-08T11:45:50;16.70;99.90
3860;DHT22;1945;52.036;8.614;2023-10-08T11:48:17;16.70;1.00
3860;DHT22;1945;52.036;8.614;2023-10-08T11:50:51;16.90;99.90
3860;DHT22;1945;52.036;8.614;2023-10-08T11:53:18;16.80;1.00
3860;DHT22;1945;52.036;8.614;2023-10-08T11:55:46;16.80;1.00
3860;DHT22;1945;52.036;8.614;2023-10-08T11:58:14;16.60;1.00
3860;DHT22;1945;52.036;8.614;2023-10-08T12:00:45;16.40;1.00
3860;DHT22;1945;52.036;8.614;2023-10-08T12:03:18;16.40;1.00
3860;DHT22;1945;52.036;8.614;2023-10-08T12:05:45;16.40;1.00
3860;DHT22;1945;52.036;8.614;2023-10-08T12:08:14;16.50;43.40
3860;DHT22;1945;52.036;8.614;2023-10-08T12:10:42;16.40;75.70
3860;DHT22;1945;52.036;8.614;2023-10-08T12:13:12;16.50;99.90
3860;DHT22;1945;52.036;8.614;2023-10-08T12:15:39;16.50;1.00
3860;DHT22;1945;52.036;8.614;2023-10-08T12:18:07;16.50;1.00
3860;DHT22;1945;52.036;8.614;2023-10-08T12:20:50;16.80;1.00
3860;DHT22;1945;52.036;8.614;2023-10-08T12:23:18;16.60;1.00
3860;DHT22;1945;52.036;8.614;2023-10-08T12:25:50;16.70;1.00
3860;DHT22;1945;52.036;8.614;2023-10-08T12:28:19;16.80;1.00
3860;DHT22;1945;52.036;8.614;2023-10-08T12:30:46;16.60;1.00
3860;DHT22;1945;52.036;8.614;2023-10-08T12:33:14;16.40;1.00
3860;DHT22;1945;52.036;8.614;2023-10-08T12:35:42;16.50;1.00
3860;DHT22;1945;52.036;8.614;2023-10-08T12:38:10;16.30;1.00
3860;DHT22;1945;52.036;8.614;2023-10-08T12:40:37;16.50;1.00
3860;DHT22;1945;52.036;8.614;2023-10-08T12:43:19;16.60;77.30
3860;DHT22;1945;52.036;8.614;2023-10-08T12:45:46;16.70;99.90
3860;DHT22;1945;52.036;8.614;2023-10-08T12:48:19;16.70;99.90
3860;DHT22;1945;52.036;8.614;2023-10-08T12:50:46;16.80;1.00
3860;DHT22;1945;52.036;8.614;2023-10-08T12:53:19;16.80;99.90
3860;DHT22;1945;52.036;8.614;2023-10-08T12:55:50;16.80;31.10
3860;DHT22;1945;52.036;8.614;2023-10-08T12:58:20;16.70;1.00
3860;DHT22;1945;52.036;8.614;2023-10-08T13:00:52;16.70;1.00
3860;DHT22;1945;52.036;8.614;2023-10-08T13:03:23;16.80;31.10
3860;DHT22;1945;52.036;8.614;2023-10-08T13:05:51;16.70;1.00
3860;DHT22;1945;52.036;8.614;2023-10-08T13:08:18;16.50;1.00
3860;DHT22;1945;52.036;8.614;2023-10-08T13:10:45;16.50;1.00
3860;DHT22;1945;52.036;8.614;2023-10-08T13:13:12;16.30;99.90
3860;DHT22;1945;52.036;8.614;2023-10-08T13:15:41;16.40;1.00
3860;DHT22;1945;52.036;8.614;2023-10-08T13:18:08;16.50;1.00
3860;DHT22;1945;52.036;8.614;2023-10-08T13:20:35;16.60;99.90
3860;DHT22;1945;52.036;8.614;2023-10-08T13:23:02;16.50;99.90
3860;DHT22;1945;52.036;8.614;2023-10-08T13:25:29;16.40;99.90
3860;DHT22;1945;52.036;8.614;2023-10-08T13:27:58;16.30;99.90
3860;DHT22;1945;52.036;8.614;2023-10-08T13:30:26;16.40;99.90
3860;DHT22;1945;52.036;8.614;2023-10-08T13:32:54;16.20;99.90
3860;DHT22;1945;52.036;8.614;2023-10-08T13:35:21;16.20;99.90
3860;DHT22;1945;52.036;8.614;2023-10-08T13:37:47;16.20;1.00
3860;DHT22;1945;52.036;8.614;2023-10-08T13:40:14;16.20;99.90
3860;DHT22;1945;52.036;8.614;2023-10-08T13:42:42;16.30;99.90
3860;DHT22;1945;52.036;8.614;2023-10-08T13:45:09;16.30;99.90
3860;DHT22;1945;52.036;8.614;2023-10-08T13:47:42;16.50;99.90
3860;DHT22;1945;52.036;8.614;2023-10-08T13:50:10;16.60;99.90
3860;DHT22;1945;52.036;8.614;2023-10-08T13:52:38;16.60;99.90
3860;DHT22;1945;52.036;8.614;2023-10-08T13:55:06;16.50;92.10
3860;DHT22;1945;52.036;8.614;2023-10-08T13:57:39;16.60;1.00
3860;DHT22;1945;52.036;8.614;2023-10-08T14:00:08;16.60;1.00
3860;DHT22;1945;52.036;8.614;2023-10-08T14:02:41;16.70;1.00
3860;DHT22;1945;52.036;8.614;2023-10-08T14:05:09;16.70;99.90
3860;DHT22;1945;52.036;8.614;2023-10-08T14:07:41;16.70;63.50
3860;DHT22;1945;52.036;8.614;2023-10-08T14:10:10;16.80;99.90
3860;DHT22;1945;52.036;8.614;2023-10-08T14:12:44;16.70;1.00
3860;DHT22;1945;52.036;8.614;2023-10-08T14:15:15;16.80;41.50
3860;DHT22;1945;52.036;8.614;2023-10-08T14:17:42;16.90;1.00
3860;DHT22;1945;52.036;8.614;2023-10-08T14:20:12;16.90;1.00
3860;DHT22;1945;52.036;8.614;2023-10-08T14:22:39;16.90;1.00
3860;DHT22;1945;52.036;8.614;2023-10-08T14:25:08;16.80;1.00
3860;DHT22;1945;52.036;8.614;2023-10-08T14:27:37;16.70;1.00
3860;DHT22;1945;52.036;8.614;2023-10-08T14:30:06;16.70;1.00
3860;DHT22;1945;52.036;8.614;2023-10-08T14:32:32;16.60;1.00
3860;DHT22;1945;52.036;8.614;2023-10-08T14:34:59;16.40;1.00
3860;DHT22;1945;52.036;8.614;2023-10-08T14:37:45;16.30;1.00
3860;DHT22;1945;52.036;8.614;2023-10-08T14:40:29;16.20;1.00
3860;DHT22;1945;52.036;8.614;2023-10-08T14:43:14;16.20;1.00
3860;DHT22;1945;52.036;8.614;2023-10-08T14:45:41;16.00;1.00
3860;DHT22;1945;52.036;8.614;2023-10-08T14:48:12;16.10;1.00
3860;DHT22;1945;52.036;8.614;2023-10-08T14:50:39;16.10;1.00
3860;DHT22;1945;52.036;8.614;2023-10-08T14:53:08;16.00;1.00
3860;DHT22;1945;52.036;8.614;2023-10-08T14:55:36;16.00;1.00
3860;DHT22;1945;52.036;8.614;2023-10-08T14:58:03;16.00;1.00
3860;DHT22;1945;52.036;8.614;2023-10-08T15:00:33;16.00;30.40
3860;DHT22;1945;52.036;8.614;2023-10-08T15:03:01;15.90;1.00
3860;DHT22;1945;52.036;8.614;2023-10-08T15:05:29;15.90;1.00
3860;DHT22;1945;52.036;8.614;2023-10-08T15:07:57;15.90;1.00
3860;DHT22;1945;52.036;8.614;2023-10-08T15:10:25;15.90;1.00
3860;DHT22;1945;52.036;8.614;2023-10-08T15:12:52;15.90;1.00
3860;DHT22;1945;52.036;8.614;2023-10-08T15:15:19;15.90;1.00
3860;DHT22;1945;52.036;8.614;2023-10-08T15:17:50;16.00;1.00
3860;DHT22;1945;52.036;8.614;2023-10-08T15:20:17;15.90;1.00
3860;DHT22;1945;52.036;8.614;2023-10-08T15:22:47;16.00;1.00
3860;DHT22;1945;52.036;8.614;2023-10-08T15:25:16;16.00;1.00
3860;DHT22;1945;52.036;8.614;2023-10-08T15:27:45;16.00;1.00
3860;DHT22;1945;52.036;8.614;2023-10-08T15:30:16;16.00;1.00
3860;DHT22;1945;52.036;8.614;2023-10-08T15:32:45;15.80;1.00
3860;DHT22;1945;52.036;8.614;2023-10-08T15:35:14;15.80;1.00
3860;DHT22;1945;52.036;8.614;2023-10-08T15:37:45;15.70;1.00
3860;DHT22;1945;52.036;8.614;2023-10-08T15:40:13;15.70;55.90
3860;DHT22;1945;52.036;8.614;2023-10-08T15:42:48;15.70;99.90
3860;DHT22;1945;52.036;8.614;2023-10-08T15:45:15;15.60;99.90
3860;DHT22;1945;52.036;8.614;2023-10-08T15:47:42;15.60;99.90
3860;DHT22;1945;52.036;8.614;2023-10-08T15:50:09;15.50;99.90
3860;DHT22;1945;52.036;8.614;2023-10-08T15:52:36;15.50;99.90
3860;DHT22;1945;52.036;8.614;2023-10-08T15:55:03;15.50;99.90
3860;DHT22;1945;52.036;8.614;2023-10-08T15:57:30;15.40;99.90
3860;DHT22;1945;52.036;8.614;2023-10-08T15:59:58;15.40;1.00
3860;DHT22;1945;52.036;8.614;2023-10-08T16:02:25;15.40;1.00
3860;DHT22;1945;52.036;8.614;2023-10-08T16:04:52;15.40;1.00
3860;DHT22;1945;52.036;8.614;2023-10-08T16:07:19;15.40;1.00
3860;DHT22;1945;52.036;8.614;2023-10-08T16:09:46;15.30;1.00
3860;DHT22;1945;52.036;8.614;2023-10-08T16:12:13;15.30;1.00
3860;DHT22;1945;52.036;8.614;2023-10-08T16:14:40;15.30;1.00
3860;DHT22;1945;52.036;8.614;2023-10-08T16:17:10;15.20;1.00
3860;DHT22;1945;52.036;8.614;2023-10-08T16:19:38;15.20;1.00
3860;DHT22;1945;52.036;8.614;2023-10-08T16:22:06;15.20;1.00
3860;DHT22;1945;52.036;8.614;2023-10-08T16:24:34;15.10;1.00
3860;DHT22;1945;52.036;8.614;2023-10-08T16:27:02;15.10;1.00
3860;DHT22;1945;52.036;8.614;2023-10-08T16:29:29;15.10;16.50
3860;DHT22;1945;52.036;8.614;2023-10-08T16:31:57;15.00;32.30
3860;DHT22;1945;52.036;8.614;2023-10-08T16:34:25;14.90;1.00